sensor_id;sensor_type;location;lat;lon;timestamp;temperature;humidity
3005;DHT22;1512;51.486;6.610;2023-05-16T00:01:06;11.30;99.90
3005;DHT22;1512;51.486;6.610;2023-05-16T00:05:16;11.30;99.90
3005;DHT22;1512;51.486;6.610;2023-05-16T00:09:25;11.30;99.90
3005;DHT22;1512;51.486;6.610;2023-05-16T00:13:33;11.30;99.90
3005;DHT22;1512;51.486;6.610;2023-05-16T00:17:43;11.30;1.00
3005;DHT22;1512;51.486;6.610;2023-05-16T00:21:53;11.40;1.00
3005;DHT22;1512;51.486;6.610;2023-05-16T00:26:01;11.50;1.00
3005;DHT22;1512;51.486;6.610;2023-05-16T00:30:10;11.20;99.90
3005;DHT22;1512;51.486;6.610;2023-05-16T00:34:19;11.20;99.90
3005;DHT22;1512;51.486;6.610;2023-05-16T00:38:29;11.00;1.00
3005;DHT22;1512;51.486;6.610;2023-05-16T00:42:38;11.20;1.00
3005;DHT22;1512;51.486;6.610;2023-05-16T00:46:47;11.10;1.00
3005;DHT22;1512;51.486;6.610;2023-05-16T00:50:56;11.10;1.00
3005;DHT22;1512;51.486;6.610;2023-05-16T00:55:06;11.10;1.00
3005;DHT22;1512;51.486;6.610;2023-05-16T00:59:15;11.10;99.90
3005;DHT22;1512;51.486;6.610;2023-05-16T01:03:24;11.10;99.90
3005;DHT22;1512;51.486;6.610;2023-05-16T01:07:35;11.00;99.90
3005;DHT22;1512;51.486;6.610;2023-05-16T01:11:52;10.90;99.90
3005;DHT22;1512;51.486;6.610;2023-05-16T01:16:33;10.80;1.00
3005;DHT22;1512;51.486;6.610;2023-05-16T01:20:48;10.80;99.90
3005;DHT22;1512;51.486;6.610;2023-05-16T01:29:16;10.70;1.00
3005;DHT22;1512;51.486;6.610;2023-05-16T01:33:25;10.70;1.00
3005;DHT22;1512;51.486;6.610;2023-05-16T01:37:47;10.80;1.00
3005;DHT22;1512;51.486;6.610;2023-05-16T01:42:02;10.70;1.00
3005;DHT22;1512;51.486;6.610;2023-05-16T01:46:13;10.70;99.90
3005;DHT22;1512;51.486;6.610;2023-05-16T01:50:24;10.70;99.90
3005;DHT22;1512;51.486;6.610;2023-05-16T01:54:36;10.60;1.00
3005;DHT22;1512;51.486;6.610;2023-05-16T01:58:50;10.60;1.00
3005;DHT22;1512;51.486;6.610;2023-05-16T02:03:00;10.70;1.00
3005;DHT22;1512;51.486;6.610;2023-05-16T02:07:09;10.60;1.00
3005;DHT22;1512;51.486;6.610;2023-05-16T02:11:18;10.70;1.00
3005;DHT22;1512;51.486;6.610;2023-05-16T02:15:28;10.70;1.00
3005;DHT22;1512;51.486;6.610;2023-05-16T02:19:36;10.50;99.90
3005;DHT22;1512;51.486;6.610;2023-05-16T02:23:45;10.60;99.90
3005;DHT22;1512;51.486;6.610;2023-05-16T02:27:54;10.60;1.00
3005;DHT22;1512;51.486;6.610;2023-05-16T02:32:03;10.50;1.00
3005;DHT22;1512;51.486;6.610;2023-05-16T02:36:12;10.60;1.00
3005;DHT22;1512;51.486;6.610;2023-05-16T02:40:22;10.50;1.00
3005;DHT22;1512;51.486;6.610;2023-05-16T02:44:31;10.50;99.90
3005;DHT22;1512;51.486;6.610;2023-05-16T02:48:40;10.60;99.90
3005;DHT22;1512;51.486;6.610;2023-05-16T02:52:49;10.50;1.00
3005;DHT22;1512;51.486;6.610;2023-05-16T02:56:57;10.40;93.90
3005;DHT22;1512;51.486;6.610;2023-05-16T03:01:07;10.20;56.50
3005;DHT22;1512;51.486;6.610;2023-05-16T03:05:15;10.20;13.00
3005;DHT22;1512;51.486;6.610;2023-05-16T03:09:26;10.00;1.00
3005;DHT22;1512;51.486;6.610;2023-05-16T03:13:35;10.00;99.90
3005;DHT22;1512;51.486;6.610;2023-05-16T03:17:44;10.10;1.00
3005;DHT22;1512;51.486;6.610;2023-05-16T03:21:52;10.00;1.00
3005;DHT22;1512;51.486;6.610;2023-05-16T03:26:02;9.90;99.90
3005;DHT22;1512;51.486;6.610;2023-05-16T03:30:11;9.90;99.90
3005;DHT22;1512;51.486;6.610;2023-05-16T03:34:20;9.90;1.00
3005;DHT22;1512;51.486;6.610;2023-05-16T03:38:29;9.80;1.00
3005;DHT22;1512;51.486;6.610;2023-05-16T03:42:40;9.70;1.00
3005;DHT22;1512;51.486;6.610;2023-05-16T03:46:49;9.70;52.00
3005;DHT22;1512;51.486;6.610;2023-05-16T03:50:58;9.60;99.90
3005;DHT22;1512;51.486;6.610;2023-05-16T03:55:07;9.70;90.40
3005;DHT22;1512;51.486;6.610;2023-05-16T03:59:15;9.70;1.00
3005;DHT22;1512;51.486;6.610;2023-05-16T04:03:24;9.60;38.60
3005;DHT22;1512;51.486;6.610;2023-05-16T04:07:36;9.60;25.10
3005;DHT22;1512;51.486;6.610;2023-05-16T04:11:47;9.60;1.00
3005;DHT22;1512;51.486;6.610;2023-05-16T04:15:56;9.50;1.00
3005;DHT22;1512;51.486;6.610;2023-05-16T04:24:14;9.30;1.00
3005;DHT22;1512;51.486;6.610;2023-05-16T04:28:23;9.30;14.60
3005;DHT22;1512;51.486;6.610;2023-05-16T04:32:32;9.40;15.60
3005;DHT22;1512;51.486;6.610;2023-05-16T04:36:42;9.40;1.00
3005;DHT22;1512;51.486;6.610;2023-05-16T04:40:51;9.40;1.00
3005;DHT22;1512;51.486;6.610;2023-05-16T04:44:59;9.40;1.00
3005;DHT22;1512;51.486;6.610;2023-05-16T04:49:10;9.30;1.00
3005;DHT22;1512;51.486;6.610;2023-05-16T04:53:19;9.40;1.00
3005;DHT22;1512;51.486;6.610;2023-05-16T04:57:27;9.40;1.00
3005;DHT22;1512;51.486;6.610;2023-05-16T05:01:36;9.30;1.00
3005;DHT22;1512;51.486;6.610;2023-05-16T05:05:46;9.40;1.00
3005;DHT22;1512;51.486;6.610;2023-05-16T05:09:55;9.40;1.00
3005;DHT22;1512;51.486;6.610;2023-05-16T05:14:03;9.40;1.00
3005;DHT22;1512;51.486;6.610;2023-05-16T05:18:12;9.30;1.00
3005;DHT22;1512;51.486;6.610;2023-05-16T05:22:21;9.30;11.10
3005;DHT22;1512;51.486;6.610;2023-05-16T05:26:29;9.30;1.00
3005;DHT22;1512;51.486;6.610;2023-05-16T05:30:38;9.30;99.90
3005;DHT22;1512;51.486;6.610;2023-05-16T05:34:48;9.30;99.90
3005;DHT22;1512;51.486;6.610;2023-05-16T05:38:57;9.30;21.80
3005;DHT22;1512;51.486;6.610;2023-05-16T05:43:07;9.40;22.80
3005;DHT22;1512;51.486;6.610;2023-05-16T05:47:16;9.60;1.00
3005;DHT22;1512;51.486;6.610;2023-05-16T05:51:25;9.50;99.90
3005;DHT22;1512;51.486;6.610;2023-05-16T05:55:33;9.60;10.50
3005;DHT22;1512;51.486;6.610;2023-05-16T05:59:42;9.70;15.40
3005;DHT22;1512;51.486;6.610;2023-05-16T06:03:51;9.70;1.00
3005;DHT22;1512;51.486;6.610;2023-05-16T06:07:59;9.70;83.00
3005;DHT22;1512;51.486;6.610;2023-05-16T06:12:09;10.00;1.00
3005;DHT22;1512;51.486;6.610;2023-05-16T06:16:18;9.90;1.00
3005;DHT22;1512;51.486;6.610;2023-05-16T06:20:28;9.90;1.00
3005;DHT22;1512;51.486;6.610;2023-05-16T06:24:38;9.80;1.00
3005;DHT22;1512;51.486;6.610;2023-05-16T06:28:46;9.90;1.00
3005;DHT22;1512;51.486;6.610;2023-05-16T06:32:55;10.00;1.00
3005;DHT22;1512;51.486;6.610;2023-05-16T06:37:04;10.20;1.00
3005;DHT22;1512;51.486;6.610;2023-05-16T06:41:14;10.20;1.00
3005;DHT22;1512;51.486;6.610;2023-05-16T06:45:22;10.30;1.00
3005;DHT22;1512;51.486;6.610;2023-05-16T06:49:32;10.30;1.00
3005;DHT22;1512;51.486;6.610;2023-05-16T06:53:41;10.40;1.00
3005;DHT22;1512;51.486;6.610;2023-05-16T06:57:50;10.40;1.00
3005;DHT22;1512;51.486;6.610;2023-05-16T07:02:00;10.40;1.00
3005;DHT22;1512;51.486;6.610;2023-05-16T07:06:09;10.60;1.00
3005;DHT22;1512;51.486;6.610;2023-05-16T07:10:18;10.80;1.00
3005;DHT22;1512;51.486;6.610;2023-05-16T07:14:27;10.90;1.00
3005;DHT22;1512;51.486;6.610;2023-05-16T07:18:37;11.00;1.00
3005;DHT22;1512;51.486;6.610;2023-05-16T07:22:46;11.10;1.00
3005;DHT22;1512;51.486;6.610;2023-05-16T07:26:55;11.10;1.00
3005;DHT22;1512;51.486;6.610;2023-05-16T07:31:04;11.20;1.00
3005;DHT22;1512;51.486;6.610;2023-05-16T07:35:17;11.50;1.00
3005;DHT22;1512;51.486;6.610;2023-05-16T07:39:26;11.80;99.90
3005;DHT22;1512;51.486;6.610;2023-05-16T07:43:35;11.90;99.90
3005;DHT22;1512;51.486;6.610;2023-05-16T07:47:44;12.00;99.90
3005;DHT22;1512;51.486;6.610;2023-05-16T07:51:54;11.90;99.90
3005;DHT22;1512;51.486;6.610;2023-05-16T07:56:03;11.90;99.90
3005;DHT22;1512;51.486;6.610;2023-05-16T08:00:16;11.80;99.90
3005;DHT22;1512;51.486;6.610;2023-05-16T08:04:24;11.90;99.90
3005;DHT22;1512;51.486;6.610;2023-05-16T08:08:33;12.10;99.90
3005;DHT22;1512;51.486;6.610;2023-05-16T08:12:42;12.60;99.90
3005;DHT22;1512;51.486;6.610;2023-05-16T08:16:51;12.40;99.90
3005;DHT22;1512;51.486;6.610;2023-05-16T08:21:00;12.50;99.90
3005;DHT22;1512;51.486;6.610;2023-05-16T08:25:09;12.50;99.90
3005;DHT22;1512;51.486;6.610;2023-05-16T08:29:18;12.60;99.90
3005;DHT22;1512;51.486;6.610;2023-05-16T08:33:26;12.90;99.90
3005;DHT22;1512;51.486;6.610;2023-05-16T08:37:35;13.10;99.90
3005;DHT22;1512;51.486;6.610;2023-05-16T08:41:44;13.00;99.90
3005;DHT22;1512;51.486;6.610;2023-05-16T08:45:53;13.00;99.90
3005;DHT22;1512;51.486;6.610;2023-05-16T08:50:06;13.10;99.90
3005;DHT22;1512;51.486;6.610;2023-05-16T08:54:16;13.30;99.90
3005;DHT22;1512;51.486;6.610;2023-05-16T08:58:25;13.50;99.90
3005;DHT22;1512;51.486;6.610;2023-05-16T09:02:36;13.70;99.90
3005;DHT22;1512;51.486;6.610;2023-05-16T09:06:45;13.90;99.90
3005;DHT22;1512;51.486;6.610;2023-05-16T09:10:54;14.10;99.90
3005;DHT22;1512;51.486;6.610;2023-05-16T09:15:04;14.30;99.90
3005;DHT22;1512;51.486;6.610;2023-05-16T09:19:13;13.90;99.90
3005;DHT22;1512;51.486;6.610;2023-05-16T09:23:25;13.70;99.90
3005;DHT22;1512;51.486;6.610;2023-05-16T09:27:34;13.60;99.90
3005;DHT22;1512;51.486;6.610;2023-05-16T09:31:43;13.20;99.90
3005;DHT22;1512;51.486;6.610;2023-05-16T09:35:56;13.10;99.90
3005;DHT22;1512;51.486;6.610;2023-05-16T09:40:06;13.30;99.90
3005;DHT22;1512;51.486;6.610;2023-05-16T09:44:17;13.50;99.90
3005;DHT22;1512;51.486;6.610;2023-05-16T09:48:26;13.50;99.90
3005;DHT22;1512;51.486;6.610;2023-05-16T09:52:36;13.60;99.90
3005;DHT22;1512;51.486;6.610;2023-05-16T09:56:50;13.70;99.90
3005;DHT22;1512;51.486;6.610;2023-05-16T10:00:58;13.80;99.90
3005;DHT22;1512;51.486;6.610;2023-05-16T10:05:08;13.70;99.90
3005;DHT22;1512;51.486;6.610;2023-05-16T10:09:17;13.70;99.90
3005;DHT22;1512;51.486;6.610;2023-05-16T10:13:29;13.60;99.90
3005;DHT22;1512;51.486;6.610;2023-05-16T10:17:39;13.50;99.90
3005;DHT22;1512;51.486;6.610;2023-05-16T10:21:52;13.30;99.90
3005;DHT22;1512;51.486;6.610;2023-05-16T10:26:03;13.20;99.90
3005;DHT22;1512;51.486;6.610;2023-05-16T10:30:13;13.40;99.90
3005;DHT22;1512;51.486;6.610;2023-05-16T10:34:24;14.00;99.90
3005;DHT22;1512;51.486;6.610;2023-05-16T10:38:33;14.40;99.90
3005;DHT22;1512;51.486;6.610;2023-05-16T10:43:01;14.50;99.90
3005;DHT22;1512;51.486;6.610;2023-05-16T10:47:05;14.50;99.90
3005;DHT22;1512;51.486;6.610;2023-05-16T10:55:33;14.60;99.90
3005;DHT22;1512;51.486;6.610;2023-05-16T10:59:44;14.90;99.90
3005;DHT22;1512;51.486;6.610;2023-05-16T11:04:04;15.20;99.90
3005;DHT22;1512;51.486;6.610;2023-05-16T11:08:13;15.00;99.90
3005;DHT22;1512;51.486;6.610;2023-05-16T11:12:22;15.00;99.90
3005;DHT22;1512;51.486;6.610;2023-05-16T11:16:33;14.70;99.90
3005;DHT22;1512;51.486;6.610;2023-05-16T11:20:42;14.40;99.90
3005;DHT22;1512;51.486;6.610;2023-05-16T11:24:59;14.10;99.90
3005;DHT22;1512;51.486;6.610;2023-05-16T11:29:08;14.00;99.90
3005;DHT22;1512;51.486;6.610;2023-05-16T11:33:17;14.00;99.90
3005;DHT22;1512;51.486;6.610;2023-05-16T11:37:26;14.10;99.90
3005;DHT22;1512;51.486;6.610;2023-05-16T11:41:36;14.50;99.90
3005;DHT22;1512;51.486;6.610;2023-05-16T11:45:45;15.30;99.90
3005;DHT22;1512;51.486;6.610;2023-05-16T11:50:17;15.40;99.90
3005;DHT22;1512;51.486;6.610;2023-05-16T11:54:26;15.60;99.90
3005;DHT22;1512;51.486;6.610;2023-05-16T11:58:35;16.00;99.90
3005;DHT22;1512;51.486;6.610;2023-05-16T12:02:45;16.10;99.90
3005;DHT22;1512;51.486;6.610;2023-05-16T12:06:59;16.00;99.90
3005;DHT22;1512;51.486;6.610;2023-05-16T12:11:09;16.20;99.90
3005;DHT22;1512;51.486;6.610;2023-05-16T12:15:18;16.30;99.90
3005;DHT22;1512;51.486;6.610;2023-05-16T12:19:27;16.40;99.90
3005;DHT22;1512;51.486;6.610;2023-05-16T12:23:37;16.60;99.90
3005;DHT22;1512;51.486;6.610;2023-05-16T12:27:46;16.90;99.90
3005;DHT22;1512;51.486;6.610;2023-05-16T12:31:55;16.70;99.90
3005;DHT22;1512;51.486;6.610;2023-05-16T12:36:11;16.60;99.90
3005;DHT22;1512;51.486;6.610;2023-05-16T12:40:17;16.90;99.90
3005;DHT22;1512;51.486;6.610;2023-05-16T12:44:28;16.80;99.90
3005;DHT22;1512;51.486;6.610;2023-05-16T12:48:38;17.00;99.90
3005;DHT22;1512;51.486;6.610;2023-05-16T12:52:51;17.10;99.90
3005;DHT22;1512;51.486;6.610;2023-05-16T12:57:00;16.90;99.90
3005;DHT22;1512;51.486;6.610;2023-05-16T13:01:09;17.10;99.90
3005;DHT22;1512;51.486;6.610;2023-05-16T13:05:19;17.00;99.90
3005;DHT22;1512;51.486;6.610;2023-05-16T13:09:29;16.70;99.90
3005;DHT22;1512;51.486;6.610;2023-05-16T13:13:39;16.30;99.90
3005;DHT22;1512;51.486;6.610;2023-05-16T13:17:48;16.00;99.90
3005;DHT22;1512;51.486;6.610;2023-05-16T13:21:57;15.60;99.90
3005;DHT22;1512;51.486;6.610;2023-05-16T13:26:06;15.90;99.90
3005;DHT22;1512;51.486;6.610;2023-05-16T13:30:16;16.60;99.90
3005;DHT22;1512;51.486;6.610;2023-05-16T13:34:25;17.30;99.90
3005;DHT22;1512;51.486;6.610;2023-05-16T13:38:34;17.50;99.90
3005;DHT22;1512;51.486;6.610;2023-05-16T13:42:42;17.20;99.90
3005;DHT22;1512;51.486;6.610;2023-05-16T13:46:51;16.90;99.90
3005;DHT22;1512;51.486;6.610;2023-05-16T13:51:00;16.70;99.90
3005;DHT22;1512;51.486;6.610;2023-05-16T13:55:09;17.10;99.90
3005;DHT22;1512;51.486;6.610;2023-05-16T13:59:23;16.80;99.90
3005;DHT22;1512;51.486;6.610;2023-05-16T14:03:34;16.80;99.90
3005;DHT22;1512;51.486;6.610;2023-05-16T14:07:45;16.60;99.90
3005;DHT22;1512;51.486;6.610;2023-05-16T14:11:54;16.20;99.90
3005;DHT22;1512;51.486;6.610;2023-05-16T14:16:03;15.80;99.90
3005;DHT22;1512;51.486;6.610;2023-05-16T14:20:12;15.60;99.90
3005;DHT22;1512;51.486;6.610;2023-05-16T14:24:22;15.70;99.90
3005;DHT22;1512;51.486;6.610;2023-05-16T14:28:31;15.80;99.90
3005;DHT22;1512;51.486;6.610;2023-05-16T14:32:39;15.80;99.90
3005;DHT22;1512;51.486;6.610;2023-05-16T14:36:48;15.60;99.90
3005;DHT22;1512;51.486;6.610;2023-05-16T14:40:57;15.70;99.90
3005;DHT22;1512;51.486;6.610;2023-05-16T14:45:07;15.50;99.90
3005;DHT22;1512;51.486;6.610;2023-05-16T14:49:17;15.20;99.90
3005;DHT22;1512;51.486;6.610;2023-05-16T14:53:25;15.10;99.90
3005;DHT22;1512;51.486;6.610;2023-05-16T14:57:34;15.00;99.90
3005;DHT22;1512;51.486;6.610;2023-05-16T15:01:43;15.00;99.90
3005;DHT22;1512;51.486;6.610;2023-05-16T15:05:53;14.90;99.90
3005;DHT22;1512;51.486;6.610;2023-05-16T15:10:02;14.80;99.90
3005;DHT22;1512;51.486;6.610;2023-05-16T15:14:11;14.90;99.90
3005;DHT22;1512;51.486;6.610;2023-05-16T15:18:20;14.80;99.90
3005;DHT22;1512;51.486;6.610;2023-05-16T15:22:29;14.80;99.90
3005;DHT22;1512;51.486;6.610;2023-05-16T15:26:39;14.60;99.90
3005;DHT22;1512;51.486;6.610;2023-05-16T15:30:49;14.40;99.90
3005;DHT22;1512;51.486;6.610;2023-05-16T15:34:58;14.20;99.90
3005;DHT22;1512;51.486;6.610;2023-05-16T15:39:07;14.00;99.90
3005;DHT22;1512;51.486;6.610;2023-05-16T15:43:15;14.10;99.90
3005;DHT22;1512;51.486;6.610;2023-05-16T15:47:24;14.00;99.90
3005;DHT22;1512;51.486;6.610;2023-05-16T15:51:34;14.00;99.90
3005;DHT22;1512;51.486;6.610;2023-05-16T15:55:42;14.00;99.90
3005;DHT22;1512;51.486;6.610;2023-05-16T15:59:51;13.80;99.90
3005;DHT22;1512;51.486;6.610;2023-05-16T16:04:00;13.90;99.90
3005;DHT22;1512;51.486;6.610;2023-05-16T16:08:09;14.00;99.90
3005;DHT22;1512;51.486;6.610;2023-05-16T16:12:17;14.00;99.90
3005;DHT22;1512;51.486;6.610;2023-05-16T16:16:26;14.20;99.90
3005;DHT22;1512;51.486;6.610;2023-05-16T16:24:50;14.40;99.90
3005;DHT22;1512;51.486;6.610;2023-05-16T16:28:59;14.10;99.90
3005;DHT22;1512;51.486;6.610;2023-05-16T16:33:08;14.00;99.90
3005;DHT22;1512;51.486;6.610;2023-05-16T16:37:16;13.90;99.90
3005;DHT22;1512;51.486;6.610;2023-05-16T16:41:25;13.80;99.90
3005;DHT22;1512;51.486;6.610;2023-05-16T16:45:35;13.80;99.90
3005;DHT22;1512;51.486;6.610;2023-05-16T16:49:45;13.80;99.90
3005;DHT22;1512;51.486;6.610;2023-05-16T16:53:53;14.00;99.90
3005;DHT22;1512;51.486;6.610;2023-05-16T16:58:04;13.90;99.90
3005;DHT22;1512;51.486;6.610;2023-05-16T17:02:13;13.80;99.90
3005;DHT22;1512;51.486;6.610;2023-05-16T17:06:22;13.80;99.90
3005;DHT22;1512;51.486;6.610;2023-05-16T17:10:31;13.70;99.90
3005;DHT22;1512;51.486;6.610;2023-05-16T17:14:40;13.80;99.90
3005;DHT22;1512;51.486;6.610;2023-05-16T17:18:54;13.70;99.90
3005;DHT22;1512;51.486;6.610;2023-05-16T17:23:03;13.70;99.90
3005;DHT22;1512;51.486;6.610;2023-05-16T17:27:12;13.70;99.90
3005;DHT22;1512;51.486;6.610;2023-05-16T17:31:21;13.40;99.90
3005;DHT22;1512;51.486;6.610;2023-05-16T17:35:30;13.40;99.90
3005;DHT22;1512;51.486;6.610;2023-05-16T17:39:39;13.50;99.90
3005;DHT22;1512;51.486;6.610;2023-05-16T17:43:48;13.50;99.90
3005;DHT22;1512;51.486;6.610;2023-05-16T17:47:57;13.40;99.90
3005;DHT22;1512;51.486;6.610;2023-05-16T17:52:06;13.50;99.90
3005;DHT22;1512;51.486;6.610;2023-05-16T17:56:15;13.50;99.90
3005;DHT22;1512;51.486;6.610;2023-05-16T18:00:24;13.30;99.90
3005;DHT22;1512;51.486;6.610;2023-05-16T18:04:33;13.40;99.90
3005;DHT22;1512;51.486;6.610;2023-05-16T18:08:41;13.40;99.90
3005;DHT22;1512;51.486;6.610;2023-05-16T18:12:50;13.30;99.90
3005;DHT22;1512;51.486;6.610;2023-05-16T18:17:18;13.40;99.90
3005;DHT22;1512;51.486;6.610;2023-05-16T18:21:27;13.30;99.90
3005;DHT22;1512;51.486;6.610;2023-05-16T18:25:36;13.20;99.90
3005;DHT22;1512;51.486;6.610;2023-05-16T18:29:44;13.10;99.90
3005;DHT22;1512;51.486;6.610;2023-05-16T18:33:53;13.20;99.90
3005;DHT22;1512;51.486;6.610;2023-05-16T18:38:02;13.10;99.90
3005;DHT22;1512;51.486;6.610;2023-05-16T18:42:11;13.10;99.90
3005;DHT22;1512;51.486;6.610;2023-05-16T18:46:20;13.10;99.90
3005;DHT22;1512;51.486;6.610;2023-05-16T18:50:28;13.00;99.90
3005;DHT22;1512;51.486;6.610;2023-05-16T18:54:38;13.00;99.90
3005;DHT22;1512;51.486;6.610;2023-05-16T18:58:47;12.90;99.90
3005;DHT22;1512;51.486;6.610;2023-05-16T19:02:55;12.90;99.90
3005;DHT22;1512;51.486;6.610;2023-05-16T19:07:04;12.90;99.90
3005;DHT22;1512;51.486;6.610;2023-05-16T19:11:16;12.90;99.90
3005;DHT22;1512;51.486;6.610;2023-05-16T19:15:25;12.90;99.90
3005;DHT22;1512;51.486;6.610;2023-05-16T19:19:34;12.90;99.90
3005;DHT22;1512;51.486;6.610;2023-05-16T19:23:43;13.00;99.90
3005;DHT22;1512;51.486;6.610;2023-05-16T19:27:52;13.00;99.90
3005;DHT22;1512;51.486;6.610;2023-05-16T19:32:01;13.10;99.90
3005;DHT22;1512;51.486;6.610;2023-05-16T19:36:10;13.10;99.90
3005;DHT22;1512;51.486;6.610;2023-05-16T19:40:18;13.00;99.90
3005;DHT22;1512;51.486;6.610;2023-05-16T19:44:27;12.90;99.90
3005;DHT22;1512;51.486;6.610;2023-05-16T19:48:36;12.90;99.90
3005;DHT22;1512;51.486;6.610;2023-05-16T19:52:44;12.90;99.90
3005;DHT22;1512;51.486;6.610;2023-05-16T19:56:53;12.90;99.90
3005;DHT22;1512;51.486;6.610;2023-05-16T20:01:02;12.90;99.90
3005;DHT22;1512;51.486;6.610;2023-05-16T20:05:13;12.90;99.90
3005;DHT22;1512;51.486;6.610;2023-05-16T20:09:24;12.80;99.90
3005;DHT22;1512;51.486;6.610;2023-05-16T20:13:35;12.80;99.90
3005;DHT22;1512;51.486;6.610;2023-05-16T20:17:43;12.80;99.90
3005;DHT22;1512;51.486;6.610;2023-05-16T20:21:52;12.60;99.90
3005;DHT22;1512;51.486;6.610;2023-05-16T20:26:01;12.40;99.90
3005;DHT22;1512;51.486;6.610;2023-05-16T20:34:39;12.20;1.00
3005;DHT22;1512;51.486;6.610;2023-05-16T20:38:48;12.20;1.00
3005;DHT22;1512;51.486;6.610;2023-05-16T20:42:57;12.20;1.00
3005;DHT22;1512;51.486;6.610;2023-05-16T20:47:06;12.10;1.00
3005;DHT22;1512;51.486;6.610;2023-05-16T20:51:15;12.00;1.00
3005;DHT22;1512;51.486;6.610;2023-05-16T20:55:25;12.00;1.00
3005;DHT22;1512;51.486;6.610;2023-05-16T20:59:34;12.00;1.00
3005;DHT22;1512;51.486;6.610;2023-05-16T21:03:44;11.90;1.00
3005;DHT22;1512;51.486;6.610;2023-05-16T21:07:52;11.80;1.00
3005;DHT22;1512;51.486;6.610;2023-05-16T21:12:01;11.70;1.00
3005;DHT22;1512;51.486;6.610;2023-05-16T21:16:09;11.70;1.00
3005;DHT22;1512;51.486;6.610;2023-05-16T21:20:19;11.60;1.00
3005;DHT22;1512;51.486;6.610;2023-05-16T21:24:28;11.60;1.00
3005;DHT22;1512;51.486;6.610;2023-05-16T21:28:38;11.50;1.00
3005;DHT22;1512;51.486;6.610;2023-05-16T21:32:48;11.50;1.00
3005;DHT22;1512;51.486;6.610;2023-05-16T21:36:57;11.40;1.00
3005;DHT22;1512;51.486;6.610;2023-05-16T21:41:06;11.30;1.00
3005;DHT22;1512;51.486;6.610;2023-05-16T21:45:15;11.20;1.00
3005;DHT22;1512;51.486;6.610;2023-05-16T21:49:23;11.00;1.00
3005;DHT22;1512;51.486;6.610;2023-05-16T21:53:52;11.00;1.00
3005;DHT22;1512;51.486;6.610;2023-05-16T21:58:00;11.10;1.00
3005;DHT22;1512;51.486;6.610;2023-05-16T22:02:09;11.00;1.00
3005;DHT22;1512;51.486;6.610;2023-05-16T22:06:37;10.90;1.00
3005;DHT22;1512;51.486;6.610;2023-05-16T22:10:46;10.80;1.00
3005;DHT22;1512;51.486;6.610;2023-05-16T22:14:55;10.80;1.00
3005;DHT22;1512;51.486;6.610;2023-05-16T22:19:04;10.70;1.00
3005;DHT22;1512;51.486;6.610;2023-05-16T22:23:13;10.60;1.00
3005;DHT22;1512;51.486;6.610;2023-05-16T22:27:22;10.50;1.00
3005;DHT22;1512;51.486;6.610;2023-05-16T22:31:30;10.60;1.00
3005;DHT22;1512;51.486;6.610;2023-05-16T22:35:39;10.60;1.00
3005;DHT22;1512;51.486;6.610;2023-05-16T22:39:48;10.60;1.00
3005;DHT22;1512;51.486;6.610;2023-05-16T22:43:56;10.50;1.00
3005;DHT22;1512;51.486;6.610;2023-05-16T22:48:05;10.50;1.00
3005;DHT22;1512;51.486;6.610;2023-05-16T22:52:14;10.50;1.00
3005;DHT22;1512;51.486;6.610;2023-05-16T22:56:22;10.60;1.00
3005;DHT22;1512;51.486;6.610;2023-05-16T23:00:31;10.60;1.00
3005;DHT22;1512;51.486;6.610;2023-05-16T23:04:40;10.60;1.00
3005;DHT22;1512;51.486;6.610;2023-05-16T23:08:50;10.40;1.00
3005;DHT22;1512;51.486;6.610;2023-05-16T23:12:58;10.40;1.00
3005;DHT22;1512;51.486;6.610;2023-05-16T23:17:07;10.30;1.00
3005;DHT22;1512;51.486;6.610;2023-05-16T23:21:16;10.20;1.00
3005;DHT22;1512;51.486;6.610;2023-05-16T23:25:25;10.00;1.00
3005;DHT22;1512;51.486;6.610;2023-05-16T23:29:34;10.00;1.00
3005;DHT22;1512;51.486;6.610;2023-05-16T23:33:42;10.00;1.00
3005;DHT22;1512;51.486;6.610;2023-05-16T23:37:51;10.00;1.00
3005;DHT22;1512;51.486;6.610;2023-05-16T23:42:00;9.90;1.00
3005;DHT22;1512;51.486;6.610;2023-05-16T23:46:09;9.80;1.00
3005;DHT22;1512;51.486;6.610;2023-05-16T23:50:18;9.80;1.00
3005;DHT22;1512;51.486;6.610;2023-05-16T23:54:29;9.70;1.00
3005;DHT22;1512;51.486;6.610;2023-05-16T23:58:37;9.70;1.00
